createdAt,value
2022-09-26T00:00:30.160Z,99.08
2022-09-26T00:01:30.411Z,98.99
2022-09-26T00:02:30.164Z,99.08
2022-09-26T00:03:30.047Z,98.99
2022-09-26T00:04:32.850Z,99.08
2022-09-26T00:05:29.973Z,99.08
2022-09-26T00:06:29.939Z,98.99
2022-09-26T00:07:29.906Z,99.08
2022-09-26T00:08:29.895Z,98.99
2022-09-26T00:09:29.836Z,98.99
2022-09-26T00:10:29.799Z,99.18
2022-09-26T00:11:29.797Z,99.18
2022-09-26T00:12:29.728Z,99.28
2022-09-26T00:13:29.692Z,99.08
2022-09-26T00:14:29.663Z,99.08
2022-09-26T00:15:29.643Z,99.18
2022-09-26T00:16:29.628Z,98.90
2022-09-26T00:17:29.557Z,99.28
2022-09-26T00:18:29.521Z,98.80
2022-09-26T00:19:29.484Z,99.18
2022-09-26T00:20:29.450Z,99.08
2022-09-26T00:21:29.429Z,99.18
2022-09-26T00:22:29.380Z,99.37
2022-09-26T00:23:29.342Z,99.18
2022-09-26T00:24:29.317Z,99.28
2022-09-26T00:25:29.277Z,99.18
2022-09-26T00:26:29.242Z,99.18
2022-09-26T00:27:29.211Z,99.37
2022-09-26T00:28:29.175Z,98.99
2022-09-26T00:29:29.141Z,99.37
2022-09-26T00:30:29.153Z,99.37
2022-09-26T00:31:29.071Z,99.57
2022-09-26T00:32:29.039Z,99.85
2022-09-26T00:33:29.086Z,99.85
2022-09-26T00:34:28.965Z,99.47
2022-09-26T00:35:28.928Z,99.37
2022-09-26T00:36:37.613Z,99.37
2022-09-26T00:37:28.872Z,99.95
2022-09-26T00:38:28.829Z,99.37
2022-09-26T00:39:28.797Z,99.18
2022-09-26T00:40:28.802Z,99.18
2022-09-26T00:41:28.752Z,99.18
2022-09-26T00:42:28.688Z,99.47
2022-09-26T00:43:28.649Z,99.37
2022-09-26T00:44:28.617Z,98.99
2022-09-26T00:45:28.592Z,99.08
2022-09-26T00:46:28.590Z,99.08
2022-09-26T00:47:28.516Z,99.08
2022-09-26T00:48:28.478Z,99.18
2022-09-26T00:49:28.446Z,99.08
2022-09-26T00:50:28.408Z,98.99
2022-09-26T00:51:28.373Z,99.18
2022-09-26T00:52:28.340Z,98.80
2022-09-26T00:53:28.309Z,99.18
2022-09-26T00:54:28.266Z,99.28
2022-09-26T00:55:28.232Z,98.80
2022-09-26T00:56:28.203Z,98.90
2022-09-26T00:57:28.159Z,99.28
2022-09-26T00:58:28.137Z,98.99
2022-09-26T00:59:28.091Z,99.37
2022-09-26T01:00:28.064Z,99.47
2022-09-26T01:01:28.166Z,99.47
2022-09-26T01:02:28.139Z,99.37
2022-09-26T01:03:27.956Z,99.95
2022-09-26T01:04:27.923Z,99.57
2022-09-26T01:05:27.885Z,99.37
2022-09-26T01:06:27.862Z,99.85
2022-09-26T01:07:27.815Z,99.85
2022-09-26T01:08:27.780Z,99.57
2022-09-26T01:09:27.745Z,99.99
2022-09-26T01:10:27.714Z,99.99
2022-09-26T01:11:27.671Z,99.37
2022-09-26T01:12:27.641Z,99.85
2022-09-26T01:13:27.605Z,99.47
2022-09-26T01:14:27.573Z,99.57
2022-09-26T01:15:27.535Z,99.47
2022-09-26T01:16:27.530Z,99.57
2022-09-26T01:17:27.465Z,99.76
2022-09-26T01:18:27.432Z,99.99
2022-09-26T01:19:27.398Z,99.95
2022-09-26T01:20:27.360Z,99.95
2022-09-26T01:21:27.410Z,99.99
2022-09-26T01:22:27.308Z,99.85
2022-09-26T01:23:27.254Z,99.85
2022-09-26T01:24:27.222Z,99.47
2022-09-26T01:25:27.188Z,99.57
2022-09-26T01:26:27.155Z,99.57
2022-09-26T01:27:27.114Z,99.99
2022-09-26T01:28:27.080Z,99.57
2022-09-26T01:29:27.071Z,99.57
2022-09-26T01:30:27.071Z,99.57
2022-09-26T01:31:27.011Z,99.99
2022-09-26T01:32:26.941Z,99.66
2022-09-26T01:33:26.912Z,99.47
2022-09-26T01:34:26.872Z,99.47
2022-09-26T01:35:26.840Z,99.95
2022-09-26T01:36:26.804Z,99.99
2022-09-26T01:37:26.769Z,99.95
2022-09-26T01:38:26.735Z,99.99
2022-09-26T01:39:26.694Z,99.95
2022-09-26T01:40:26.707Z,99.99
2022-09-26T01:41:26.630Z,99.85
2022-09-26T01:42:26.595Z,99.99
2022-09-26T01:43:26.560Z,99.99
2022-09-26T01:44:26.532Z,99.99
2022-09-26T01:45:26.496Z,99.99
2022-09-26T01:46:26.544Z,99.57
2022-09-26T01:47:26.418Z,99.95
2022-09-26T01:48:26.532Z,99.85
2022-09-26T01:49:26.350Z,99.76
2022-09-26T01:50:26.310Z,99.57
2022-09-26T01:51:26.276Z,99.99
2022-09-26T01:52:26.266Z,99.95
2022-09-26T01:53:26.210Z,99.95
2022-09-26T01:54:26.174Z,99.66
2022-09-26T01:55:26.136Z,99.85
2022-09-26T01:56:26.116Z,99.57
2022-09-26T01:57:26.071Z,99.95
2022-09-26T01:58:26.034Z,99.57
2022-09-26T01:59:26.000Z,99.57
2022-09-26T02:00:25.970Z,99.57
2022-09-26T02:01:25.999Z,99.76
2022-09-26T02:02:25.982Z,99.85
2022-09-26T02:03:25.858Z,99.95
2022-09-26T02:04:25.826Z,99.99
2022-09-26T02:05:25.794Z,99.76
2022-09-26T02:06:25.754Z,99.99
2022-09-26T02:07:25.725Z,99.76
2022-09-26T02:08:25.691Z,99.95
2022-09-26T02:09:25.751Z,99.95
2022-09-26T02:10:25.616Z,99.95
2022-09-26T02:11:25.582Z,99.95
2022-09-26T02:12:25.550Z,99.95
2022-09-26T02:13:25.517Z,99.76
2022-09-26T02:14:25.506Z,99.95
2022-09-26T02:15:25.441Z,99.57
2022-09-26T02:16:25.425Z,99.57
2022-09-26T02:17:25.373Z,99.95
2022-09-26T02:18:25.346Z,99.57
2022-09-26T02:19:25.303Z,99.95
2022-09-26T02:20:25.273Z,99.85
2022-09-26T02:21:25.235Z,99.95
2022-09-26T02:22:25.200Z,99.57
2022-09-26T02:23:25.170Z,99.99
2022-09-26T02:24:25.132Z,99.99
2022-09-26T02:25:25.098Z,99.76
2022-09-26T02:26:25.067Z,99.99
2022-09-26T02:27:25.033Z,99.76
2022-09-26T02:28:24.989Z,99.85
2022-09-26T02:29:24.955Z,99.85
2022-09-26T02:30:24.924Z,99.85
2022-09-26T02:31:24.934Z,99.85
2022-09-26T02:32:24.854Z,99.37
2022-09-26T02:33:24.824Z,99.47
2022-09-26T02:34:24.782Z,99.47
2022-09-26T02:35:24.747Z,99.99
2022-09-26T02:36:24.714Z,99.85
2022-09-26T02:37:24.689Z,99.95
2022-09-26T02:38:24.641Z,99.85
2022-09-26T02:39:24.609Z,99.76
2022-09-26T02:40:24.621Z,99.47
2022-09-26T02:41:24.544Z,99.57
2022-09-26T02:42:24.502Z,99.99
2022-09-26T02:43:24.487Z,99.99
2022-09-26T02:44:24.434Z,99.99
2022-09-26T02:45:24.431Z,99.99
2022-09-26T02:46:24.366Z,99.95
2022-09-26T02:47:24.327Z,99.99
2022-09-26T02:48:24.295Z,99.99
2022-09-26T02:49:24.260Z,99.99
2022-09-26T02:50:24.225Z,99.99
2022-09-26T02:51:24.194Z,99.99
2022-09-26T02:52:24.160Z,99.99
2022-09-26T02:53:24.123Z,99.99
2022-09-26T02:54:24.091Z,99.99
2022-09-26T02:55:24.056Z,99.99
2022-09-26T02:56:24.021Z,99.99
2022-09-26T02:57:23.986Z,99.99
2022-09-26T02:58:23.961Z,99.99
2022-09-26T02:59:23.912Z,99.99
2022-09-26T03:00:23.879Z,99.99
2022-09-26T03:01:23.888Z,99.99
2022-09-26T03:02:23.816Z,99.99
2022-09-26T03:03:23.797Z,99.95
2022-09-26T03:04:23.802Z,99.99
2022-09-26T03:05:23.703Z,99.99
2022-09-26T03:06:23.672Z,99.99
2022-09-26T03:07:23.635Z,99.99
2022-09-26T03:08:23.601Z,99.99
2022-09-26T03:09:23.583Z,99.99
2022-09-26T03:10:23.535Z,99.85
2022-09-26T03:11:23.499Z,99.99
2022-09-26T03:12:23.466Z,99.99
2022-09-26T03:13:23.439Z,99.99
2022-09-26T03:14:23.392Z,99.99
2022-09-26T03:15:23.357Z,99.99
2022-09-26T03:16:23.365Z,99.99
2022-09-26T03:17:23.292Z,99.99
2022-09-26T03:18:23.252Z,99.99
2022-09-26T03:19:23.215Z,99.99
2022-09-26T03:20:23.183Z,99.99
2022-09-26T03:21:23.172Z,99.99
2022-09-26T03:22:23.114Z,99.99
2022-09-26T03:23:23.080Z,99.99
2022-09-26T03:24:23.044Z,99.99
2022-09-26T03:25:23.012Z,99.99
2022-09-26T03:26:22.980Z,99.99
2022-09-26T03:27:22.943Z,99.99
2022-09-26T03:28:22.905Z,99.99
2022-09-26T03:29:22.894Z,99.99
2022-09-26T03:30:22.840Z,99.99
2022-09-26T03:31:22.838Z,99.99
2022-09-26T03:32:22.767Z,99.99
2022-09-26T03:33:22.778Z,99.99
2022-09-26T03:34:22.699Z,99.99
2022-09-26T03:35:22.664Z,99.99
2022-09-26T03:36:22.635Z,99.99
2022-09-26T03:37:23.574Z,99.99
2022-09-26T03:38:22.564Z,99.99
2022-09-26T03:39:22.522Z,99.99
2022-09-26T03:40:22.584Z,99.99
2022-09-26T03:41:22.474Z,99.99
2022-09-26T03:42:22.470Z,99.99
2022-09-26T03:43:22.389Z,99.99
2022-09-26T03:44:22.351Z,99.99
2022-09-26T03:45:22.393Z,99.99
2022-09-26T03:46:22.287Z,99.99
2022-09-26T03:47:22.249Z,99.99
2022-09-26T03:48:22.223Z,99.99
2022-09-26T03:49:22.177Z,99.99
2022-09-26T03:50:22.142Z,99.99
2022-09-26T03:51:22.110Z,99.99
2022-09-26T03:52:22.075Z,99.99
2022-09-26T03:53:22.043Z,99.99
2022-09-26T03:54:22.021Z,99.99
2022-09-26T03:55:21.973Z,99.99
2022-09-26T03:56:21.935Z,99.99
2022-09-26T03:57:21.901Z,99.99
2022-09-26T03:58:21.875Z,99.99
2022-09-26T03:59:21.830Z,99.99
2022-09-26T04:00:21.801Z,99.99
2022-09-26T04:01:21.864Z,99.99
2022-09-26T04:02:21.771Z,99.99
2022-09-26T04:03:21.696Z,99.99
2022-09-26T04:04:21.662Z,99.99
2022-09-26T04:05:21.627Z,99.99
2022-09-26T04:06:21.611Z,99.99
2022-09-26T04:07:21.554Z,99.99
2022-09-26T04:08:21.518Z,99.99
2022-09-26T04:09:21.891Z,99.99
2022-09-26T04:10:21.449Z,99.99
2022-09-26T04:11:21.415Z,99.99
2022-09-26T04:12:21.381Z,99.99
2022-09-26T04:13:49.446Z,99.99
2022-09-26T04:14:21.311Z,99.99
2022-09-26T04:15:21.275Z,99.99
2022-09-26T04:16:21.322Z,99.99
2022-09-26T04:17:21.211Z,99.99
2022-09-26T04:18:21.175Z,99.99
2022-09-26T04:19:21.137Z,99.99
2022-09-26T04:20:21.104Z,99.99
2022-09-26T04:21:21.070Z,99.99
2022-09-26T04:22:21.044Z,99.99
2022-09-26T04:23:21.007Z,99.99
2022-09-26T04:24:20.965Z,99.99
2022-09-26T04:25:20.935Z,99.99
2022-09-26T04:26:23.762Z,99.99
2022-09-26T04:27:20.863Z,99.99
2022-09-26T04:28:20.824Z,99.99
2022-09-26T04:29:20.791Z,99.99
2022-09-26T04:30:20.757Z,99.99
2022-09-26T04:31:20.755Z,99.99
2022-09-26T04:32:20.684Z,99.99
2022-09-26T04:33:20.653Z,99.99
2022-09-26T04:34:26.284Z,99.99
2022-09-26T04:35:20.581Z,99.99
2022-09-26T04:36:20.547Z,99.99
2022-09-26T04:37:20.510Z,99.99
2022-09-26T04:38:20.475Z,99.99
2022-09-26T04:39:20.439Z,99.99
2022-09-26T04:40:20.462Z,99.99
2022-09-26T04:41:20.370Z,99.99
2022-09-26T04:42:20.336Z,99.99
2022-09-26T04:43:20.300Z,99.99
2022-09-26T04:44:20.273Z,99.99
2022-09-26T04:45:20.231Z,99.99
2022-09-26T04:46:22.847Z,99.99
2022-09-26T04:47:20.156Z,99.99
2022-09-26T04:48:20.124Z,99.99
2022-09-26T04:49:20.091Z,99.99
2022-09-26T04:50:20.053Z,99.99
2022-09-26T04:51:20.019Z,99.99
2022-09-26T04:52:19.984Z,99.99
2022-09-26T04:53:19.955Z,99.99
2022-09-26T04:54:19.914Z,99.99
2022-09-26T04:55:19.876Z,99.99
2022-09-26T04:56:19.845Z,99.99
2022-09-26T04:57:20.087Z,99.99
2022-09-26T04:58:19.796Z,99.99
2022-09-26T04:59:19.739Z,99.99
2022-09-26T05:00:19.702Z,99.99
2022-09-26T05:01:19.845Z,99.99
2022-09-26T05:02:19.701Z,99.99
2022-09-26T05:03:19.597Z,99.99
2022-09-26T05:04:22.784Z,99.99
2022-09-26T05:05:19.618Z,99.99
2022-09-26T05:06:19.505Z,99.99
2022-09-26T05:07:19.459Z,99.99
2022-09-26T05:08:19.422Z,99.99
2022-09-26T05:09:19.388Z,99.99
2022-09-26T05:10:19.354Z,99.99
2022-09-26T05:11:19.321Z,99.99
2022-09-26T05:12:19.282Z,99.99
2022-09-26T05:13:19.258Z,99.99
2022-09-26T05:14:19.214Z,99.99
2022-09-26T05:15:19.192Z,99.99
2022-09-26T05:16:19.215Z,99.99
2022-09-26T05:17:19.108Z,99.99
2022-09-26T05:18:19.073Z,99.99
2022-09-26T05:19:19.035Z,99.99
2022-09-26T05:20:19.019Z,99.99
2022-09-26T05:21:18.980Z,99.99
2022-09-26T05:22:18.949Z,99.99
2022-09-26T05:23:18.897Z,99.99
2022-09-26T05:24:18.863Z,99.99
2022-09-26T05:25:18.826Z,99.99
2022-09-26T05:26:18.796Z,99.99
2022-09-26T05:27:18.759Z,99.99
2022-09-26T05:28:18.727Z,99.99
2022-09-26T05:29:18.778Z,99.99
2022-09-26T05:30:18.657Z,99.99
2022-09-26T05:31:18.763Z,99.99
2022-09-26T05:32:18.584Z,99.99
2022-09-26T05:33:18.547Z,99.99
2022-09-26T05:34:20.020Z,99.99
2022-09-26T05:35:18.477Z,99.99
2022-09-26T05:36:18.443Z,99.99
2022-09-26T05:37:18.409Z,99.99
2022-09-26T05:38:18.372Z,99.99
2022-09-26T05:39:18.335Z,99.99
2022-09-26T05:40:18.396Z,99.99
2022-09-26T05:41:18.273Z,99.99
2022-09-26T05:42:18.232Z,99.99
2022-09-26T05:43:18.214Z,99.99
2022-09-26T05:44:18.162Z,99.99
2022-09-26T05:45:18.128Z,99.99
2022-09-26T05:46:18.119Z,99.99
2022-09-26T05:47:18.059Z,99.99
2022-09-26T05:48:18.025Z,99.99
2022-09-26T05:49:17.988Z,99.99
2022-09-26T05:50:17.956Z,99.99
2022-09-26T05:51:17.918Z,99.99
2022-09-26T05:52:17.886Z,99.99
2022-09-26T05:53:17.855Z,99.99
2022-09-26T05:54:17.811Z,99.99
2022-09-26T05:55:17.775Z,99.99
2022-09-26T05:56:18.738Z,99.99
2022-09-26T05:57:17.708Z,99.99
2022-09-26T05:58:17.671Z,99.99
2022-09-26T05:59:17.637Z,99.76
2022-09-26T06:00:17.624Z,99.99
2022-09-26T06:01:17.602Z,99.99
2022-09-26T06:02:20.851Z,99.85
2022-09-26T06:03:17.498Z,99.99
2022-09-26T06:04:17.468Z,99.85
2022-09-26T06:05:17.430Z,99.95
2022-09-26T06:06:17.392Z,99.52
2022-09-26T06:07:17.358Z,99.90
2022-09-26T06:08:17.362Z,99.43
2022-09-26T06:09:17.307Z,99.80
2022-09-26T06:10:17.255Z,99.99
2022-09-26T06:11:17.241Z,99.04
2022-09-26T06:12:17.197Z,99.23
2022-09-26T06:13:17.150Z,99.23
2022-09-26T06:14:17.123Z,99.23
2022-09-26T06:15:17.084Z,98.57
2022-09-26T06:16:17.114Z,99.04
2022-09-26T06:17:17.014Z,98.94
2022-09-26T06:18:17.002Z,99.62
2022-09-26T06:19:22.043Z,99.04
2022-09-26T06:20:16.908Z,98.66
2022-09-26T06:21:16.887Z,99.09
2022-09-26T06:22:16.841Z,98.85
2022-09-26T06:23:16.805Z,98.94
2022-09-26T06:24:16.770Z,98.37
2022-09-26T06:25:16.752Z,98.37
2022-09-26T06:26:16.701Z,98.52
2022-09-26T06:27:16.671Z,98.80
2022-09-26T06:28:16.651Z,98.71
2022-09-26T06:29:16.600Z,98.80
2022-09-26T06:30:16.621Z,98.52
2022-09-26T06:31:16.631Z,98.80
2022-09-26T06:32:16.496Z,98.80
2022-09-26T06:33:16.466Z,98.90
2022-09-26T06:34:16.427Z,98.52
2022-09-26T06:35:16.402Z,97.56
2022-09-26T06:36:16.357Z,98.13
2022-09-26T06:37:16.339Z,98.23
2022-09-26T06:38:16.290Z,98.23
2022-09-26T06:39:16.453Z,97.94
2022-09-26T06:40:16.259Z,98.04
2022-09-26T06:41:16.187Z,97.66
2022-09-26T06:42:16.151Z,97.75
2022-09-26T06:43:16.115Z,97.18
2022-09-26T06:44:16.089Z,97.18
2022-09-26T06:45:16.045Z,97.47
2022-09-26T06:46:16.187Z,96.99
2022-09-26T06:47:16.093Z,96.70
2022-09-26T06:48:17.368Z,97.37
2022-09-26T06:49:16.008Z,97.56
2022-09-26T06:50:15.875Z,97.28
2022-09-26T06:51:15.865Z,97.52
2022-09-26T06:52:15.985Z,97.37
2022-09-26T06:53:15.777Z,96.84
2022-09-26T06:54:15.743Z,96.66
2022-09-26T06:55:15.708Z,96.75
2022-09-26T06:56:15.673Z,96.56
2022-09-26T06:57:15.650Z,96.75
2022-09-26T06:58:15.605Z,97.52
2022-09-26T06:59:15.731Z,97.42
2022-09-26T07:00:15.536Z,96.47
2022-09-26T07:01:15.667Z,96.66
2022-09-26T07:02:15.498Z,96.47
2022-09-26T07:03:15.460Z,96.66
2022-09-26T07:04:15.398Z,96.47
2022-09-26T07:05:15.366Z,96.66
2022-09-26T07:06:15.327Z,96.75
2022-09-26T07:07:15.295Z,96.75
2022-09-26T07:08:15.267Z,96.84
2022-09-26T07:09:15.443Z,96.94
2022-09-26T07:10:15.192Z,97.33
2022-09-26T07:11:35.320Z,97.52
2022-09-26T07:12:15.904Z,96.56
2022-09-26T07:13:15.093Z,96.75
2022-09-26T07:14:15.062Z,96.94
2022-09-26T07:15:15.021Z,96.66
2022-09-26T07:16:15.039Z,96.94
2022-09-26T07:17:14.957Z,96.56
2022-09-26T07:18:14.926Z,97.23
2022-09-26T07:19:15.078Z,97.52
2022-09-26T07:20:14.853Z,97.90
2022-09-26T07:21:14.820Z,98.28
2022-09-26T07:22:14.814Z,97.90
2022-09-26T07:23:14.753Z,98.18
2022-09-26T07:24:14.724Z,98.38
2022-09-26T07:25:14.685Z,97.80
2022-09-26T07:26:14.677Z,98.18
2022-09-26T07:27:14.620Z,97.61
2022-09-26T07:28:14.586Z,97.42
2022-09-26T07:29:14.766Z,98.38
2022-09-26T07:30:14.516Z,98.57
2022-09-26T07:31:14.500Z,99.52
2022-09-26T07:32:14.457Z,98.85
2022-09-26T07:33:14.436Z,99.52
2022-09-26T07:34:18.009Z,98.75
2022-09-26T07:35:14.352Z,98.66
2022-09-26T07:36:14.311Z,99.43
2022-09-26T07:37:14.279Z,98.75
2022-09-26T07:38:14.242Z,99.52
2022-09-26T07:39:14.322Z,99.62
2022-09-26T07:40:14.232Z,98.57
2022-09-26T07:41:14.143Z,98.57
2022-09-26T07:42:14.108Z,97.99
2022-09-26T07:43:31.976Z,97.90
2022-09-26T07:45:28.778Z,99.14
2022-09-26T07:46:14.062Z,99.43
2022-09-26T07:47:13.938Z,99.14
2022-09-26T07:48:13.906Z,98.42
2022-09-26T07:49:13.894Z,98.09
2022-09-26T07:50:13.839Z,98.95
2022-09-26T07:51:13.800Z,98.23
2022-09-26T07:52:13.772Z,98.99
2022-09-26T07:53:13.733Z,98.99
2022-09-26T07:54:13.818Z,99.09
2022-09-26T07:55:13.673Z,98.61
2022-09-26T07:56:13.635Z,99.28
2022-09-26T07:57:13.595Z,99.99
2022-09-26T07:58:13.563Z,99.38
2022-09-26T07:59:13.526Z,99.38
2022-09-26T08:00:13.493Z,99.99
2022-09-26T08:01:13.689Z,99.66
2022-09-26T08:02:13.530Z,99.99
2022-09-26T08:03:13.447Z,99.14
2022-09-26T08:04:13.366Z,99.43
2022-09-26T08:05:13.323Z,99.99
2022-09-26T08:06:13.284Z,99.14
2022-09-26T08:07:13.269Z,99.80
2022-09-26T08:08:13.220Z,99.99
2022-09-26T08:09:13.189Z,99.99
2022-09-26T08:10:13.153Z,99.52
2022-09-26T08:11:13.109Z,99.99
2022-09-26T08:12:13.079Z,99.99
2022-09-26T08:13:13.043Z,99.99
2022-09-26T08:14:13.065Z,99.99
2022-09-26T08:15:12.973Z,99.99
2022-09-26T08:16:13.014Z,99.99
2022-09-26T08:17:14.329Z,99.99
2022-09-26T08:18:12.868Z,99.99
2022-09-26T08:19:12.903Z,99.99
2022-09-26T08:20:12.807Z,99.99
2022-09-26T08:21:12.767Z,99.99
2022-09-26T08:22:12.728Z,99.99
2022-09-26T08:23:12.711Z,99.99
2022-09-26T08:24:12.719Z,99.99
2022-09-26T08:25:12.660Z,99.99
2022-09-26T08:26:12.595Z,99.99
2022-09-26T08:27:12.555Z,99.99
2022-09-26T08:28:12.519Z,99.99
2022-09-26T08:29:12.573Z,99.99
2022-09-26T08:30:12.459Z,99.99
2022-09-26T08:31:12.514Z,99.99
2022-09-26T08:32:12.378Z,99.99
2022-09-26T08:33:12.351Z,99.99
2022-09-26T08:34:12.359Z,99.99
2022-09-26T08:35:12.275Z,99.99
2022-09-26T08:36:12.239Z,99.99
2022-09-26T08:37:12.205Z,99.99
2022-09-26T08:38:12.192Z,99.99
2022-09-26T08:39:12.214Z,99.99
2022-09-26T08:40:12.174Z,99.99
2022-09-26T08:41:12.065Z,99.99
2022-09-26T08:42:12.034Z,99.99
2022-09-26T08:43:11.991Z,99.99
2022-09-26T08:44:11.992Z,99.99
2022-09-26T08:45:11.924Z,99.99
2022-09-26T08:46:11.929Z,99.99
2022-09-26T08:47:11.856Z,99.99
2022-09-26T08:48:11.820Z,99.99
2022-09-26T08:49:11.789Z,99.99
2022-09-26T08:50:11.750Z,99.99
2022-09-26T08:51:11.733Z,99.99
2022-09-26T08:52:11.679Z,99.99
2022-09-26T08:53:11.648Z,99.99
2022-09-26T08:54:11.680Z,99.99
2022-09-26T08:55:11.578Z,99.99
2022-09-26T08:56:11.545Z,99.80
2022-09-26T08:57:11.505Z,99.99
2022-09-26T08:58:11.474Z,99.99
2022-09-26T08:59:11.437Z,99.99
2022-09-26T09:00:11.400Z,99.99
2022-09-26T09:01:11.417Z,99.99
2022-09-26T09:02:11.400Z,99.99
2022-09-26T09:03:11.346Z,99.99
2022-09-26T09:04:11.262Z,99.99
2022-09-26T09:05:11.231Z,99.99
2022-09-26T09:06:11.214Z,99.99
2022-09-26T09:07:11.153Z,99.99
2022-09-26T09:08:11.123Z,99.99
2022-09-26T09:09:11.104Z,99.99
2022-09-26T09:10:11.149Z,99.99
2022-09-26T09:11:11.017Z,99.90
2022-09-26T09:12:10.985Z,99.90
2022-09-26T09:13:10.959Z,99.99
2022-09-26T09:14:10.919Z,99.99
2022-09-26T09:15:26.580Z,99.99
2022-09-26T09:16:10.950Z,99.99
2022-09-26T09:17:10.805Z,99.99
2022-09-26T09:18:13.655Z,99.99
2022-09-26T09:19:10.739Z,99.99
2022-09-26T09:20:10.704Z,99.90
2022-09-26T09:21:10.683Z,99.62
2022-09-26T09:22:10.641Z,99.99
2022-09-26T09:23:10.597Z,99.80
2022-09-26T09:24:10.566Z,99.80
2022-09-26T09:25:10.530Z,99.99
2022-09-26T09:28:10.427Z,99.76
2022-09-26T09:29:10.717Z,99.99
2022-09-26T09:30:16.496Z,99.99
2022-09-26T09:31:10.363Z,99.99
2022-09-26T09:32:10.296Z,99.99
2022-09-26T09:33:10.260Z,99.99
2022-09-26T09:34:10.217Z,99.99
2022-09-26T09:35:10.192Z,99.99
2022-09-26T09:36:10.154Z,99.99
2022-09-26T09:37:10.128Z,99.99
2022-09-26T09:38:10.085Z,99.99
2022-09-26T09:39:10.047Z,99.57
2022-09-26T09:40:10.014Z,99.99
2022-09-26T09:41:09.977Z,99.66
2022-09-26T09:42:09.943Z,99.85
2022-09-26T09:43:09.912Z,99.99
2022-09-26T09:44:09.934Z,99.99
2022-09-26T09:45:09.863Z,99.99
2022-09-26T09:46:09.836Z,99.99
2022-09-26T09:47:09.791Z,99.99
2022-09-26T09:48:09.738Z,99.99
2022-09-26T09:49:09.721Z,99.99
2022-09-26T09:50:09.668Z,99.99
2022-09-26T09:51:09.633Z,99.99
2022-09-26T09:52:09.617Z,99.99
2022-09-26T09:53:09.579Z,99.99
2022-09-26T09:54:09.618Z,99.99
2022-09-26T09:55:09.507Z,99.99
2022-09-26T09:56:09.468Z,99.99
2022-09-26T09:57:09.430Z,99.99
2022-09-26T09:58:09.443Z,99.99
2022-09-26T09:59:09.360Z,99.99
2022-09-26T10:00:09.345Z,99.99
2022-09-26T10:01:09.292Z,99.99
2022-09-26T10:02:09.261Z,99.99
2022-09-26T10:03:09.341Z,99.99
2022-09-26T10:04:09.267Z,99.99
2022-09-26T10:05:09.151Z,99.99
2022-09-26T10:06:13.481Z,99.99
2022-09-26T10:07:09.084Z,99.99
2022-09-26T10:08:09.046Z,99.99
2022-09-26T10:09:35.615Z,99.99
2022-09-26T10:10:08.975Z,99.99
2022-09-26T10:11:08.943Z,99.99
2022-09-26T10:12:08.953Z,99.99
2022-09-26T10:13:08.870Z,99.99
2022-09-26T10:14:08.909Z,99.99
2022-09-26T10:15:08.797Z,99.99
2022-09-26T10:16:08.850Z,99.99
2022-09-26T10:17:08.734Z,99.99
2022-09-26T10:18:26.144Z,99.99
2022-09-26T10:19:08.686Z,99.99
2022-09-26T10:20:08.625Z,99.99
2022-09-26T10:21:08.593Z,99.99
2022-09-26T10:22:08.566Z,99.99
2022-09-26T10:23:08.518Z,99.99
2022-09-26T10:24:08.490Z,99.99
2022-09-26T10:25:08.480Z,99.99
2022-09-26T10:26:08.424Z,99.99
2022-09-26T10:27:08.380Z,99.99
2022-09-26T10:28:08.345Z,99.99
2022-09-26T10:29:08.388Z,99.99
2022-09-26T10:30:08.273Z,99.99
2022-09-26T10:31:08.372Z,99.99
2022-09-26T10:32:08.214Z,99.99
2022-09-26T10:33:08.172Z,99.99
2022-09-26T10:34:08.138Z,99.99
2022-09-26T10:35:08.105Z,99.99
2022-09-26T10:36:08.070Z,99.99
2022-09-26T10:37:08.034Z,99.99
2022-09-26T10:38:08.019Z,99.99
2022-09-26T10:39:07.968Z,99.99
2022-09-26T10:40:07.936Z,99.99
2022-09-26T10:41:08.030Z,99.99
2022-09-26T10:42:07.862Z,99.99
2022-09-26T10:43:07.824Z,99.99
2022-09-26T10:44:07.799Z,99.99
2022-09-26T10:45:07.754Z,99.99
2022-09-26T10:46:07.858Z,99.99
2022-09-26T10:47:07.709Z,99.99
2022-09-26T10:48:07.662Z,99.99
2022-09-26T10:49:07.628Z,99.99
2022-09-26T10:50:07.585Z,99.95
2022-09-26T10:51:07.550Z,99.85
2022-09-26T10:52:07.513Z,99.99
2022-09-26T10:53:07.487Z,99.99
2022-09-26T10:54:07.529Z,99.99
2022-09-26T10:55:07.411Z,99.99
2022-09-26T10:56:07.394Z,99.99
2022-09-26T10:57:07.348Z,99.99
2022-09-26T10:58:12.855Z,99.99
2022-09-26T10:59:07.286Z,99.99
2022-09-26T11:00:07.235Z,99.99
2022-09-26T11:01:07.200Z,99.95
2022-09-26T11:02:07.209Z,99.62
2022-09-26T11:03:07.218Z,99.57
2022-09-26T11:04:07.218Z,99.52
2022-09-26T11:05:07.062Z,99.90
2022-09-26T11:06:07.132Z,99.24
2022-09-26T11:07:07.004Z,99.99
2022-09-26T11:08:06.961Z,99.99
2022-09-26T11:09:06.928Z,99.24
2022-09-26T11:10:06.894Z,99.04
2022-09-26T11:11:06.864Z,98.66
2022-09-26T11:12:06.909Z,98.85
2022-09-26T11:13:06.797Z,98.47
2022-09-26T11:14:06.829Z,97.80
2022-09-26T11:15:06.717Z,97.99
2022-09-26T11:16:06.745Z,99.14
2022-09-26T11:17:06.648Z,97.90
2022-09-26T11:18:06.619Z,97.23
2022-09-26T11:19:06.690Z,97.71
2022-09-26T11:20:06.553Z,97.52
2022-09-26T11:21:18.300Z,97.42
2022-09-26T11:22:08.425Z,98.47
2022-09-26T11:23:06.449Z,97.80
2022-09-26T11:24:06.477Z,97.52
2022-09-26T11:25:06.381Z,98.09
2022-09-26T11:26:06.351Z,97.61
2022-09-26T11:27:06.311Z,97.90
2022-09-26T11:28:06.275Z,97.80
2022-09-26T11:29:06.348Z,97.33
2022-09-26T11:30:06.209Z,98.18
2022-09-26T11:31:06.257Z,97.61
2022-09-26T11:32:06.145Z,97.04
2022-09-26T11:33:06.106Z,97.52
2022-09-26T11:34:06.111Z,97.33
2022-09-26T11:35:06.040Z,97.42
2022-09-26T11:36:06.004Z,97.37
2022-09-26T11:37:05.982Z,97.52
2022-09-26T11:38:05.935Z,97.80
2022-09-26T11:39:05.910Z,97.90
2022-09-26T11:40:09.582Z,97.37
2022-09-26T11:41:05.856Z,96.66
2022-09-26T11:42:05.799Z,97.56
2022-09-26T11:43:05.760Z,97.52
2022-09-26T11:44:05.778Z,97.47
2022-09-26T11:45:05.697Z,96.66
2022-09-26T11:46:05.694Z,96.61
2022-09-26T11:47:05.623Z,97.23
2022-09-26T11:48:05.591Z,97.56
2022-09-26T11:49:05.558Z,96.56
2022-09-26T11:50:05.524Z,96.51
2022-09-26T11:51:05.495Z,96.42
2022-09-26T11:52:05.454Z,96.13
2022-09-26T11:53:05.467Z,95.94
2022-09-26T11:54:05.404Z,96.99
2022-09-26T11:55:05.349Z,96.03
2022-09-26T11:56:05.316Z,96.42
2022-09-26T11:57:05.285Z,95.94
2022-09-26T11:58:05.247Z,96.22
2022-09-26T11:59:05.220Z,95.65
2022-09-26T12:00:05.181Z,95.46
2022-09-26T12:01:05.151Z,96.51
2022-09-26T12:02:05.114Z,96.13
2022-09-26T12:03:05.226Z,95.46
2022-09-26T12:04:05.109Z,95.94
2022-09-26T12:05:05.026Z,96.13
2022-09-26T12:06:04.983Z,96.51
2022-09-26T12:07:04.942Z,96.42
2022-09-26T12:08:04.915Z,95.84
2022-09-26T12:09:04.874Z,96.13
2022-09-26T12:10:04.846Z,95.94
2022-09-26T12:11:04.807Z,95.27
2022-09-26T12:12:04.778Z,95.94
2022-09-26T12:13:04.738Z,95.56
2022-09-26T12:14:04.721Z,95.51
2022-09-26T12:15:04.670Z,95.89
2022-09-26T12:16:04.686Z,95.22
2022-09-26T12:17:04.645Z,95.79
2022-09-26T12:18:04.571Z,95.70
2022-09-26T12:19:04.536Z,96.08
2022-09-26T12:20:04.504Z,95.89
2022-09-26T12:21:04.468Z,95.98
2022-09-26T12:22:04.453Z,95.79
2022-09-26T12:23:04.404Z,95.89
2022-09-26T12:24:04.383Z,96.37
2022-09-26T12:25:04.338Z,96.18
2022-09-26T12:26:04.302Z,96.08
2022-09-26T12:27:04.269Z,95.79
2022-09-26T12:28:04.237Z,95.98
2022-09-26T12:29:04.199Z,95.22
2022-09-26T12:30:04.197Z,95.51
2022-09-26T12:31:04.195Z,95.03
2022-09-26T12:32:04.098Z,94.84
2022-09-26T12:33:04.072Z,94.84
2022-09-26T12:34:04.031Z,95.22
2022-09-26T12:35:03.998Z,95.03
2022-09-26T12:36:03.963Z,95.89
2022-09-26T12:37:03.933Z,94.84
2022-09-26T12:38:03.907Z,95.41
2022-09-26T12:39:03.892Z,94.74
2022-09-26T12:40:03.832Z,95.56
2022-09-26T12:41:03.862Z,95.79
2022-09-26T12:42:03.770Z,94.65
2022-09-26T12:43:03.729Z,94.84
2022-09-26T12:44:03.700Z,95.79
2022-09-26T12:45:03.693Z,95.89
2022-09-26T12:46:03.677Z,96.08
2022-09-26T12:47:03.597Z,96.75
2022-09-26T12:48:03.563Z,96.75
2022-09-26T12:49:03.547Z,97.56
2022-09-26T12:50:03.500Z,98.00
2022-09-26T12:51:03.466Z,98.52
2022-09-26T12:52:03.437Z,98.81
2022-09-26T12:53:03.438Z,99.29
2022-09-26T12:54:03.360Z,99.99
2022-09-26T12:55:03.328Z,99.99